createdAt,value
2023-03-06T00:02:13.286Z,21.59
2023-03-06T00:06:13.297Z,21.59
2023-03-06T00:10:13.198Z,21.58
2023-03-06T00:14:13.140Z,21.58
2023-03-06T00:18:13.110Z,21.58
2023-03-06T00:22:13.122Z,21.57
2023-03-06T00:26:13.252Z,21.56
2023-03-06T00:30:13.445Z,21.56
2023-03-06T00:34:13.470Z,21.56
2023-03-06T00:38:13.355Z,21.56
2023-03-06T00:42:13.346Z,21.54
2023-03-06T00:46:13.547Z,21.55
2023-03-06T00:50:13.478Z,21.54
2023-03-06T00:54:13.468Z,21.53
2023-03-06T00:58:13.412Z,21.53
2023-03-06T01:02:13.352Z,21.53
2023-03-06T01:06:13.329Z,21.52
2023-03-06T01:10:13.217Z,21.52
2023-03-06T01:14:13.059Z,21.52
2023-03-06T01:18:13.064Z,21.52
2023-03-06T01:22:13.206Z,21.52
2023-03-06T01:26:13.368Z,21.52
2023-03-06T01:30:13.503Z,21.51
2023-03-06T01:34:13.686Z,21.50
2023-03-06T01:38:13.877Z,21.50
2023-03-06T01:42:14.001Z,21.50
2023-03-06T01:46:14.224Z,21.50
2023-03-06T01:50:14.343Z,21.49
2023-03-06T01:54:14.538Z,21.50
2023-03-06T01:58:14.766Z,21.49
2023-03-06T02:02:14.995Z,21.48
2023-03-06T02:06:15.157Z,21.48
2023-03-06T02:10:15.276Z,21.48
2023-03-06T02:14:15.511Z,21.48
2023-03-06T02:18:15.586Z,21.47
2023-03-06T02:22:15.684Z,21.47
2023-03-06T02:26:15.795Z,21.46
2023-03-06T02:30:15.972Z,21.47
2023-03-06T02:34:16.126Z,21.46
2023-03-06T02:38:16.317Z,21.46
2023-03-06T02:42:16.397Z,21.46
2023-03-06T02:46:16.515Z,21.45
2023-03-06T02:50:16.666Z,21.45
2023-03-06T02:54:16.788Z,21.45
2023-03-06T02:58:16.865Z,21.44
2023-03-06T03:02:16.983Z,21.44
2023-03-06T03:06:17.122Z,21.44
2023-03-06T03:10:17.232Z,21.44
2023-03-06T03:14:17.322Z,21.44
2023-03-06T03:18:17.475Z,21.43
2023-03-06T03:22:17.521Z,21.43
2023-03-06T03:26:17.714Z,21.43
2023-03-06T03:30:17.719Z,21.42
2023-03-06T03:34:17.779Z,21.42
2023-03-06T03:38:17.812Z,21.42
2023-03-06T03:42:17.852Z,21.42
2023-03-06T03:46:17.927Z,21.41
2023-03-06T03:50:17.980Z,21.41
2023-03-06T03:54:18.056Z,21.41
2023-03-06T03:58:18.106Z,21.40
2023-03-06T04:02:18.378Z,21.40
2023-03-06T04:06:18.270Z,21.40
2023-03-06T04:10:18.386Z,21.40
2023-03-06T04:14:18.434Z,21.40
2023-03-06T04:18:18.520Z,21.41
2023-03-06T04:22:18.631Z,21.43
2023-03-06T04:26:18.776Z,21.43
2023-03-06T04:30:18.889Z,21.44
2023-03-06T04:34:19.080Z,21.45
2023-03-06T04:38:19.228Z,21.47
2023-03-06T04:42:19.346Z,21.48
2023-03-06T04:46:19.483Z,21.48
2023-03-06T04:50:19.656Z,21.49
2023-03-06T04:54:19.817Z,21.49
2023-03-06T04:58:20.031Z,21.51
2023-03-06T05:02:20.029Z,21.51
2023-03-06T05:06:19.979Z,21.51
2023-03-06T05:10:19.912Z,21.52
2023-03-06T05:14:20.381Z,21.52
2023-03-06T05:18:19.827Z,21.53
2023-03-06T05:22:19.783Z,21.54
2023-03-06T05:26:19.771Z,21.54
2023-03-06T05:30:19.726Z,21.55
2023-03-06T05:34:19.689Z,21.56
2023-03-06T05:38:19.678Z,21.56
2023-03-06T05:42:19.823Z,21.56
2023-03-06T05:46:20.056Z,21.57
2023-03-06T05:50:20.396Z,21.58
2023-03-06T05:54:19.899Z,21.58
2023-03-06T05:58:19.883Z,21.58
2023-03-06T06:02:19.886Z,21.59
2023-03-06T06:06:19.807Z,21.59
2023-03-06T06:10:19.776Z,21.60
2023-03-06T06:14:19.737Z,21.60
2023-03-06T06:18:19.671Z,21.61
2023-03-06T06:22:19.647Z,21.61
2023-03-06T06:26:19.870Z,21.63
2023-03-06T06:30:20.039Z,21.63
2023-03-06T06:34:20.253Z,21.64
2023-03-06T06:38:20.891Z,21.68
2023-03-06T06:42:31.960Z,21.74
2023-03-06T06:46:59.252Z,21.87
2023-03-06T06:50:21.580Z,22.00
2023-03-06T06:54:20.985Z,22.19
2023-03-06T06:58:20.891Z,22.36
2023-03-06T07:02:20.919Z,22.49
2023-03-06T07:06:20.423Z,22.62
2023-03-06T07:10:21.225Z,22.74
2023-03-06T07:14:20.417Z,22.87
2023-03-06T07:18:20.303Z,22.97
2023-03-06T07:22:20.249Z,23.07
2023-03-06T07:26:20.210Z,23.15
2023-03-06T07:30:20.409Z,23.22
2023-03-06T07:34:20.595Z,23.29
2023-03-06T07:38:20.748Z,23.35
2023-03-06T07:42:20.860Z,23.42
2023-03-06T07:46:21.502Z,23.47
2023-03-06T07:50:21.426Z,23.54
2023-03-06T07:54:21.245Z,23.57
2023-03-06T07:58:21.413Z,22.65
2023-03-06T08:02:21.388Z,22.37
2023-03-06T08:06:21.501Z,22.72
2023-03-06T08:10:21.616Z,23.03
2023-03-06T08:14:21.733Z,23.27
2023-03-06T08:18:21.921Z,23.45
2023-03-06T08:22:22.428Z,23.63
2023-03-06T08:26:22.069Z,23.74
2023-03-06T08:30:22.109Z,23.81
2023-03-06T08:34:22.427Z,23.87
2023-03-06T08:38:22.309Z,23.93
2023-03-06T08:42:22.385Z,23.97
2023-03-06T08:46:22.953Z,24.00
2023-03-06T08:50:22.925Z,23.99
2023-03-06T08:54:22.963Z,23.99
2023-03-06T08:58:22.563Z,23.93
2023-03-06T09:02:23.003Z,23.89
2023-03-06T09:06:22.636Z,23.86
2023-03-06T09:10:22.742Z,23.87
2023-03-06T09:14:22.745Z,23.89
2023-03-06T09:18:22.852Z,23.90
2023-03-06T09:22:22.907Z,23.92
2023-03-06T09:26:28.068Z,23.94
2023-03-06T09:30:23.959Z,23.96
2023-03-06T09:34:22.902Z,23.99
2023-03-06T09:38:22.991Z,24.05
2023-03-06T09:42:23.006Z,24.09
2023-03-06T09:46:23.190Z,24.14
2023-03-06T09:50:23.482Z,24.18
2023-03-06T09:54:23.456Z,23.77
2023-03-06T09:58:23.471Z,23.57
2023-03-06T10:02:24.046Z,23.57
2023-03-06T10:06:23.794Z,23.64
2023-03-06T10:10:23.936Z,23.74
2023-03-06T10:14:24.066Z,23.85
2023-03-06T10:18:24.446Z,23.91
2023-03-06T10:22:24.175Z,23.96
2023-03-06T10:26:24.571Z,24.01
2023-03-06T10:30:24.240Z,24.04
2023-03-06T10:34:24.496Z,24.07
2023-03-06T10:38:24.500Z,24.10
2023-03-06T10:42:24.447Z,24.11
2023-03-06T10:46:24.490Z,24.13
2023-03-06T10:50:25.041Z,24.07
2023-03-06T10:54:24.997Z,23.97
2023-03-06T10:58:24.668Z,23.46
2023-03-06T11:02:24.990Z,23.42
2023-03-06T11:06:24.858Z,23.63
2023-03-06T11:10:25.504Z,23.79
2023-03-06T11:14:27.604Z,23.93
2023-03-06T11:18:24.983Z,24.03
2023-03-06T11:22:25.007Z,24.10
2023-03-06T11:26:24.983Z,24.17
2023-03-06T11:30:24.903Z,24.21
2023-03-06T11:34:25.001Z,24.25
2023-03-06T11:38:25.037Z,24.27
2023-03-06T11:42:25.018Z,24.23
2023-03-06T11:46:24.847Z,24.12
2023-03-06T11:50:24.695Z,24.05
2023-03-06T11:54:24.984Z,23.97
2023-03-06T11:58:24.631Z,23.91
2023-03-06T12:02:24.673Z,23.88
2023-03-06T12:06:24.996Z,23.85
2023-03-06T12:10:24.587Z,23.82
2023-03-06T12:14:24.491Z,23.79
2023-03-06T12:18:26.055Z,23.76
2023-03-06T12:22:24.421Z,23.73
2023-03-06T12:26:24.517Z,23.72
2023-03-06T12:30:24.529Z,23.71
2023-03-06T12:34:25.013Z,23.69
2023-03-06T12:38:24.729Z,23.67
2023-03-06T12:42:25.009Z,23.68
2023-03-06T12:46:25.165Z,23.66
2023-03-06T12:50:25.535Z,23.65
2023-03-06T12:54:25.401Z,23.65
2023-03-06T12:58:25.568Z,23.63
2023-03-06T13:02:25.755Z,23.61
2023-03-06T13:06:25.901Z,23.62
2023-03-06T13:10:26.040Z,23.62
2023-03-06T13:14:26.206Z,23.63
2023-03-06T13:18:26.361Z,23.65
2023-03-06T13:22:26.553Z,23.66
2023-03-06T13:26:27.039Z,23.69
2023-03-06T13:30:26.849Z,23.66
2023-03-06T13:34:27.008Z,23.65
2023-03-06T13:38:27.178Z,23.66
2023-03-06T13:42:27.367Z,23.64
2023-03-06T13:46:27.551Z,23.61
2023-03-06T13:50:27.652Z,23.63
2023-03-06T13:54:27.840Z,23.61
2023-03-06T13:58:27.978Z,23.61
2023-03-06T14:02:28.123Z,23.60
2023-03-06T14:06:28.306Z,23.61
2023-03-06T14:10:28.465Z,23.62
2023-03-06T14:14:28.612Z,23.61
2023-03-06T14:18:28.753Z,23.60
2023-03-06T14:22:28.937Z,23.61
2023-03-06T14:26:29.070Z,23.61
2023-03-06T14:30:29.246Z,23.62
2023-03-06T14:34:29.473Z,23.63
2023-03-06T14:38:29.578Z,23.63
2023-03-06T14:42:29.721Z,23.66
2023-03-06T14:46:29.886Z,23.67
2023-03-06T14:50:29.991Z,23.64
2023-03-06T14:54:30.137Z,23.69
2023-03-06T14:58:30.252Z,23.72
2023-03-06T15:02:30.403Z,23.72
2023-03-06T15:06:30.579Z,23.75
2023-03-06T15:10:30.606Z,23.78
2023-03-06T15:14:30.676Z,23.80
2023-03-06T15:18:30.769Z,23.79
2023-03-06T15:22:31.133Z,23.80
2023-03-06T15:26:30.998Z,23.81
2023-03-06T15:30:31.106Z,23.78
2023-03-06T15:34:31.174Z,23.76
2023-03-06T15:38:31.344Z,23.77
2023-03-06T15:42:31.508Z,23.75
2023-03-06T15:46:31.559Z,23.74
2023-03-06T15:50:31.641Z,23.70
2023-03-06T15:54:32.993Z,23.69
2023-03-06T15:58:31.940Z,23.67
2023-03-06T16:02:32.040Z,23.65
2023-03-06T16:06:32.218Z,23.62
2023-03-06T16:10:32.363Z,23.59
2023-03-06T16:14:32.539Z,23.56
2023-03-06T16:18:32.715Z,23.52
2023-03-06T16:22:32.923Z,23.49
2023-03-06T16:26:33.139Z,23.46
2023-03-06T16:30:33.378Z,23.43
2023-03-06T16:34:33.562Z,23.41
2023-03-06T16:38:33.734Z,23.38
2023-03-06T16:42:33.969Z,23.36
2023-03-06T16:46:34.188Z,23.33
2023-03-06T16:50:34.325Z,23.33
2023-03-06T16:54:34.425Z,23.29
2023-03-06T16:58:34.457Z,23.27
2023-03-06T17:02:34.516Z,23.26
2023-03-06T17:06:34.575Z,23.23
2023-03-06T17:10:34.591Z,23.21
2023-03-06T17:14:34.631Z,23.18
2023-03-06T17:18:34.624Z,23.16
2023-03-06T17:22:34.680Z,23.15
2023-03-06T17:26:34.742Z,23.13
2023-03-06T17:30:34.735Z,23.11
2023-03-06T17:34:34.824Z,23.10
2023-03-06T17:38:34.887Z,23.08
2023-03-06T17:42:34.931Z,23.08
2023-03-06T17:46:35.054Z,23.07
2023-03-06T17:50:35.072Z,23.04
2023-03-06T17:54:35.149Z,23.02
2023-03-06T17:58:35.233Z,23.01
2023-03-06T18:02:35.326Z,23.01
2023-03-06T18:06:35.390Z,22.99
2023-03-06T18:10:35.459Z,22.98
2023-03-06T18:14:35.529Z,22.96
2023-03-06T18:18:35.600Z,22.95
2023-03-06T18:22:35.751Z,22.94
2023-03-06T18:26:35.878Z,22.93
2023-03-06T18:30:35.986Z,22.90
2023-03-06T18:34:36.677Z,22.90
2023-03-06T18:38:36.190Z,22.88
2023-03-06T18:42:36.355Z,22.87
2023-03-06T18:46:36.485Z,22.86
2023-03-06T18:50:36.619Z,22.85
2023-03-06T18:54:36.739Z,22.82
2023-03-06T18:58:36.932Z,22.82
2023-03-06T19:02:37.068Z,22.80
2023-03-06T19:06:37.175Z,22.79
2023-03-06T19:10:37.347Z,22.78
2023-03-06T19:14:37.509Z,22.77
2023-03-06T19:18:37.738Z,22.76
2023-03-06T19:22:37.875Z,22.75
2023-03-06T19:26:38.021Z,22.73
2023-03-06T19:30:38.210Z,22.73
2023-03-06T19:34:38.393Z,22.71
2023-03-06T19:38:38.582Z,22.70
2023-03-06T19:42:38.750Z,22.69
2023-03-06T19:46:38.900Z,22.68
2023-03-06T19:50:39.094Z,22.66
2023-03-06T19:54:39.320Z,22.66
2023-03-06T19:58:39.484Z,22.65
2023-03-06T20:02:39.720Z,22.64
2023-03-06T20:06:39.901Z,22.63
2023-03-06T20:10:40.105Z,22.62
2023-03-06T20:14:40.298Z,22.61
2023-03-06T20:18:40.524Z,22.60
2023-03-06T20:22:40.484Z,22.59
2023-03-06T20:26:40.487Z,22.58
2023-03-06T20:30:40.403Z,22.58
2023-03-06T20:34:40.379Z,22.56
2023-03-06T20:38:40.317Z,22.55
2023-03-06T20:42:40.269Z,22.55
2023-03-06T20:46:40.326Z,22.53
2023-03-06T20:50:40.220Z,22.53
2023-03-06T20:54:40.164Z,22.52
2023-03-06T20:58:40.098Z,22.51
2023-03-06T21:02:40.115Z,22.51
2023-03-06T21:06:40.309Z,22.49
2023-03-06T21:10:40.495Z,22.49
2023-03-06T21:14:40.655Z,22.48
2023-03-06T21:18:40.915Z,22.48
2023-03-06T21:22:41.026Z,22.47
2023-03-06T21:26:41.188Z,22.46
2023-03-06T21:30:41.316Z,22.45
2023-03-06T21:34:41.374Z,22.45
2023-03-06T21:38:41.484Z,22.45
2023-03-06T21:42:42.270Z,22.43
2023-03-06T21:46:41.625Z,22.43
2023-03-06T21:50:41.675Z,22.42
2023-03-06T21:54:41.704Z,22.42
2023-03-06T21:58:41.761Z,22.40
2023-03-06T22:02:41.840Z,22.40
2023-03-06T22:06:41.869Z,22.39
2023-03-06T22:10:41.895Z,22.39
2023-03-06T22:14:42.250Z,22.39
2023-03-06T22:18:41.973Z,22.38
2023-03-06T22:22:41.997Z,22.37
2023-03-06T22:26:42.079Z,22.36
2023-03-06T22:30:42.052Z,22.36
2023-03-06T22:34:42.141Z,22.34
2023-03-06T22:38:42.149Z,22.35
2023-03-06T22:42:42.202Z,22.34
2023-03-06T22:46:42.320Z,22.34
2023-03-06T22:50:42.387Z,22.33
2023-03-06T22:54:42.494Z,22.32
2023-03-06T22:58:42.527Z,22.32
2023-03-06T23:02:42.569Z,22.32
2023-03-06T23:06:42.648Z,22.31
2023-03-06T23:10:42.770Z,22.30
2023-03-06T23:14:42.859Z,22.29
2023-03-06T23:18:42.939Z,22.30
2023-03-06T23:22:43.026Z,22.28
2023-03-06T23:26:43.156Z,22.29
2023-03-06T23:30:43.275Z,22.28
2023-03-06T23:34:43.272Z,22.28
2023-03-06T23:38:43.286Z,22.27
2023-03-06T23:42:43.380Z,22.27
2023-03-06T23:46:43.386Z,22.26
2023-03-06T23:50:43.373Z,22.26
2023-03-06T23:54:43.443Z,22.25
2023-03-06T23:58:43.486Z,22.26
